sensor_id;sensor_type;location;lat;lon;timestamp;temperature;humidity
7684;DHT22;3884;48.616;12.872;2022-11-20T00:01:27;3.20;99.90
7684;DHT22;3884;48.616;12.872;2022-11-20T00:03:56;3.20;99.90
7684;DHT22;3884;48.616;12.872;2022-11-20T00:06:23;3.20;99.90
7684;DHT22;3884;48.616;12.872;2022-11-20T00:08:51;3.20;99.90
7684;DHT22;3884;48.616;12.872;2022-11-20T00:11:23;3.10;99.90
7684;DHT22;3884;48.616;12.872;2022-11-20T00:13:51;3.20;99.90
7684;DHT22;3884;48.616;12.872;2022-11-20T00:16:19;3.20;99.90
7684;DHT22;3884;48.616;12.872;2022-11-20T00:18:47;3.30;99.90
7684;DHT22;3884;48.616;12.872;2022-11-20T00:21:16;3.30;99.90
7684;DHT22;3884;48.616;12.872;2022-11-20T00:23:43;3.40;99.90
7684;DHT22;3884;48.616;12.872;2022-11-20T00:26:12;3.30;99.90
7684;DHT22;3884;48.616;12.872;2022-11-20T00:28:42;3.30;99.90
7684;DHT22;3884;48.616;12.872;2022-11-20T00:31:11;3.30;99.90
7684;DHT22;3884;48.616;12.872;2022-11-20T00:33:38;3.30;99.90
7684;DHT22;3884;48.616;12.872;2022-11-20T00:36:07;3.30;99.90
7684;DHT22;3884;48.616;12.872;2022-11-20T00:38:35;3.30;99.90
7684;DHT22;3884;48.616;12.872;2022-11-20T00:41:05;3.30;99.90
7684;DHT22;3884;48.616;12.872;2022-11-20T00:43:33;3.40;99.90
7684;DHT22;3884;48.616;12.872;2022-11-20T00:46:03;3.30;99.90
7684;DHT22;3884;48.616;12.872;2022-11-20T00:48:30;3.40;99.90
7684;DHT22;3884;48.616;12.872;2022-11-20T00:50:58;3.30;99.90
7684;DHT22;3884;48.616;12.872;2022-11-20T00:53:25;3.30;99.90
7684;DHT22;3884;48.616;12.872;2022-11-20T00:55:56;3.20;99.90
7684;DHT22;3884;48.616;12.872;2022-11-20T00:58:24;3.20;99.90
7684;DHT22;3884;48.616;12.872;2022-11-20T01:00:51;3.30;99.90
7684;DHT22;3884;48.616;12.872;2022-11-20T01:03:20;3.30;99.90
7684;DHT22;3884;48.616;12.872;2022-11-20T01:05:47;3.30;99.90
7684;DHT22;3884;48.616;12.872;2022-11-20T01:08:14;3.40;99.90
7684;DHT22;3884;48.616;12.872;2022-11-20T01:10:41;3.30;99.90
7684;DHT22;3884;48.616;12.872;2022-11-20T01:13:07;3.30;99.90
7684;DHT22;3884;48.616;12.872;2022-11-20T01:15:52;3.20;99.90
7684;DHT22;3884;48.616;12.872;2022-11-20T01:18:20;3.20;99.90
7684;DHT22;3884;48.616;12.872;2022-11-20T01:20:47;3.10;99.90
7684;DHT22;3884;48.616;12.872;2022-11-20T01:23:14;3.30;99.90
7684;DHT22;3884;48.616;12.872;2022-11-20T01:25:41;3.20;99.90
7684;DHT22;3884;48.616;12.872;2022-11-20T01:28:08;3.10;99.90
7684;DHT22;3884;48.616;12.872;2022-11-20T01:30:35;3.20;99.90
7684;DHT22;3884;48.616;12.872;2022-11-20T01:33:02;3.20;99.90
7684;DHT22;3884;48.616;12.872;2022-11-20T01:35:31;3.20;99.90
7684;DHT22;3884;48.616;12.872;2022-11-20T01:37:58;3.20;99.90
7684;DHT22;3884;48.616;12.872;2022-11-20T01:40:25;3.20;99.90
7684;DHT22;3884;48.616;12.872;2022-11-20T01:43:00;3.20;99.90
7684;DHT22;3884;48.616;12.872;2022-11-20T01:48:51;3.20;99.90
7684;DHT22;3884;48.616;12.872;2022-11-20T01:51:23;3.10;99.90
7684;DHT22;3884;48.616;12.872;2022-11-20T01:53:53;3.10;99.90
7684;DHT22;3884;48.616;12.872;2022-11-20T01:56:22;3.10;99.90
7684;DHT22;3884;48.616;12.872;2022-11-20T01:58:51;3.30;99.90
7684;DHT22;3884;48.616;12.872;2022-11-20T02:01:20;3.00;99.90
7684;DHT22;3884;48.616;12.872;2022-11-20T02:03:48;3.10;99.90
7684;DHT22;3884;48.616;12.872;2022-11-20T02:06:21;3.10;99.90
7684;DHT22;3884;48.616;12.872;2022-11-20T02:08:51;3.10;99.90
7684;DHT22;3884;48.616;12.872;2022-11-20T02:11:18;3.10;99.90
7684;DHT22;3884;48.616;12.872;2022-11-20T02:13:45;3.00;99.90
7684;DHT22;3884;48.616;12.872;2022-11-20T02:16:16;2.90;99.90
7684;DHT22;3884;48.616;12.872;2022-11-20T02:18:45;3.00;99.90
7684;DHT22;3884;48.616;12.872;2022-11-20T02:21:28;3.20;99.90
7684;DHT22;3884;48.616;12.872;2022-11-20T02:24:04;3.10;99.90
7684;DHT22;3884;48.616;12.872;2022-11-20T02:26:33;3.10;99.90
7684;DHT22;3884;48.616;12.872;2022-11-20T02:29:02;3.10;99.90
7684;DHT22;3884;48.616;12.872;2022-11-20T02:31:35;3.10;99.90
7684;DHT22;3884;48.616;12.872;2022-11-20T02:34:02;3.20;99.90
7684;DHT22;3884;48.616;12.872;2022-11-20T02:36:30;3.20;99.90
7684;DHT22;3884;48.616;12.872;2022-11-20T02:39:00;3.30;99.90
7684;DHT22;3884;48.616;12.872;2022-11-20T02:41:31;3.20;99.90
7684;DHT22;3884;48.616;12.872;2022-11-20T02:43:58;3.20;99.90
7684;DHT22;3884;48.616;12.872;2022-11-20T02:46:25;3.40;99.90
7684;DHT22;3884;48.616;12.872;2022-11-20T02:48:52;3.20;99.90
7684;DHT22;3884;48.616;12.872;2022-11-20T02:51:19;3.20;99.90
7684;DHT22;3884;48.616;12.872;2022-11-20T02:53:46;3.30;99.90
7684;DHT22;3884;48.616;12.872;2022-11-20T02:56:15;3.30;99.90
7684;DHT22;3884;48.616;12.872;2022-11-20T02:58:42;3.30;99.90
7684;DHT22;3884;48.616;12.872;2022-11-20T03:01:09;3.30;99.90
7684;DHT22;3884;48.616;12.872;2022-11-20T03:03:36;3.30;99.90
7684;DHT22;3884;48.616;12.872;2022-11-20T03:06:04;3.30;99.90
7684;DHT22;3884;48.616;12.872;2022-11-20T03:08:31;3.30;99.90
7684;DHT22;3884;48.616;12.872;2022-11-20T03:11:02;3.30;99.90
7684;DHT22;3884;48.616;12.872;2022-11-20T03:13:31;3.30;99.90
7684;DHT22;3884;48.616;12.872;2022-11-20T03:16:03;3.30;99.90
7684;DHT22;3884;48.616;12.872;2022-11-20T03:18:31;3.30;99.90
7684;DHT22;3884;48.616;12.872;2022-11-20T03:20:58;3.30;99.90
7684;DHT22;3884;48.616;12.872;2022-11-20T03:23:25;3.30;99.90
7684;DHT22;3884;48.616;12.872;2022-11-20T03:25:52;3.30;99.90
7684;DHT22;3884;48.616;12.872;2022-11-20T03:28:20;3.30;99.90
7684;DHT22;3884;48.616;12.872;2022-11-20T03:30:48;3.30;99.90
7684;DHT22;3884;48.616;12.872;2022-11-20T03:33:15;3.30;99.90
7684;DHT22;3884;48.616;12.872;2022-11-20T03:35:42;3.20;99.90
7684;DHT22;3884;48.616;12.872;2022-11-20T03:38:09;3.20;99.90
7684;DHT22;3884;48.616;12.872;2022-11-20T03:40:36;3.30;99.90
7684;DHT22;3884;48.616;12.872;2022-11-20T03:43:03;3.30;99.90
7684;DHT22;3884;48.616;12.872;2022-11-20T03:45:30;3.40;99.90
7684;DHT22;3884;48.616;12.872;2022-11-20T03:47:59;3.30;99.90
7684;DHT22;3884;48.616;12.872;2022-11-20T03:50:26;3.30;99.90
7684;DHT22;3884;48.616;12.872;2022-11-20T03:52:53;3.30;99.90
7684;DHT22;3884;48.616;12.872;2022-11-20T03:55:20;3.30;99.90
7684;DHT22;3884;48.616;12.872;2022-11-20T03:57:47;3.40;99.90
7684;DHT22;3884;48.616;12.872;2022-11-20T04:00:14;3.40;99.90
7684;DHT22;3884;48.616;12.872;2022-11-20T04:02:41;3.40;99.90
7684;DHT22;3884;48.616;12.872;2022-11-20T04:05:10;3.40;99.90
7684;DHT22;3884;48.616;12.872;2022-11-20T04:07:37;3.40;99.90
7684;DHT22;3884;48.616;12.872;2022-11-20T04:10:04;3.40;99.90
7684;DHT22;3884;48.616;12.872;2022-11-20T04:12:32;3.40;99.90
7684;DHT22;3884;48.616;12.872;2022-11-20T04:15:00;3.40;99.90
7684;DHT22;3884;48.616;12.872;2022-11-20T04:17:27;3.40;99.90
7684;DHT22;3884;48.616;12.872;2022-11-20T04:19:55;3.40;99.90
7684;DHT22;3884;48.616;12.872;2022-11-20T04:22:23;3.50;99.90
7684;DHT22;3884;48.616;12.872;2022-11-20T04:24:50;3.40;99.90
7684;DHT22;3884;48.616;12.872;2022-11-20T04:27:17;3.50;99.90
7684;DHT22;3884;48.616;12.872;2022-11-20T04:29:44;3.40;99.90
7684;DHT22;3884;48.616;12.872;2022-11-20T04:32:11;3.30;99.90
7684;DHT22;3884;48.616;12.872;2022-11-20T04:34:38;3.30;99.90
7684;DHT22;3884;48.616;12.872;2022-11-20T04:37:05;3.50;99.90
7684;DHT22;3884;48.616;12.872;2022-11-20T04:39:33;3.30;99.90
7684;DHT22;3884;48.616;12.872;2022-11-20T04:42:00;3.30;99.90
7684;DHT22;3884;48.616;12.872;2022-11-20T04:44:45;3.60;99.90
7684;DHT22;3884;48.616;12.872;2022-11-20T04:47:11;3.30;99.90
7684;DHT22;3884;48.616;12.872;2022-11-20T04:49:39;3.30;99.90
7684;DHT22;3884;48.616;12.872;2022-11-20T04:52:06;3.40;99.90
7684;DHT22;3884;48.616;12.872;2022-11-20T04:54:34;3.50;99.90
7684;DHT22;3884;48.616;12.872;2022-11-20T04:57:01;3.40;99.90
7684;DHT22;3884;48.616;12.872;2022-11-20T04:59:28;3.40;99.90
7684;DHT22;3884;48.616;12.872;2022-11-20T05:01:55;3.30;99.90
7684;DHT22;3884;48.616;12.872;2022-11-20T05:04:22;3.30;99.90
7684;DHT22;3884;48.616;12.872;2022-11-20T05:06:50;3.30;99.90
7684;DHT22;3884;48.616;12.872;2022-11-20T05:09:17;3.30;99.90
7684;DHT22;3884;48.616;12.872;2022-11-20T05:11:45;3.30;99.90
7684;DHT22;3884;48.616;12.872;2022-11-20T05:14:12;3.40;99.90
7684;DHT22;3884;48.616;12.872;2022-11-20T05:16:39;3.30;99.90
7684;DHT22;3884;48.616;12.872;2022-11-20T05:19:06;3.30;99.90
7684;DHT22;3884;48.616;12.872;2022-11-20T05:21:33;3.40;99.90
7684;DHT22;3884;48.616;12.872;2022-11-20T05:24:00;3.40;99.90
7684;DHT22;3884;48.616;12.872;2022-11-20T05:26:27;3.50;99.90
7684;DHT22;3884;48.616;12.872;2022-11-20T05:28:55;3.40;99.90
7684;DHT22;3884;48.616;12.872;2022-11-20T05:31:24;3.30;99.90
7684;DHT22;3884;48.616;12.872;2022-11-20T05:33:51;3.30;99.90
7684;DHT22;3884;48.616;12.872;2022-11-20T05:36:18;3.20;99.90
7684;DHT22;3884;48.616;12.872;2022-11-20T05:38:45;3.20;99.90
7684;DHT22;3884;48.616;12.872;2022-11-20T05:41:15;3.10;99.90
7684;DHT22;3884;48.616;12.872;2022-11-20T05:43:43;3.20;99.90
7684;DHT22;3884;48.616;12.872;2022-11-20T05:46:14;3.20;99.90
7684;DHT22;3884;48.616;12.872;2022-11-20T05:48:42;3.30;99.90
7684;DHT22;3884;48.616;12.872;2022-11-20T05:51:12;3.30;99.90
7684;DHT22;3884;48.616;12.872;2022-11-20T05:53:39;3.30;99.90
7684;DHT22;3884;48.616;12.872;2022-11-20T05:56:09;3.20;99.90
7684;DHT22;3884;48.616;12.872;2022-11-20T05:58:36;3.20;99.90
7684;DHT22;3884;48.616;12.872;2022-11-20T06:01:05;3.30;99.90
7684;DHT22;3884;48.616;12.872;2022-11-20T06:03:34;3.20;99.90
7684;DHT22;3884;48.616;12.872;2022-11-20T06:06:02;3.10;99.90
7684;DHT22;3884;48.616;12.872;2022-11-20T06:08:30;3.20;99.90
7684;DHT22;3884;48.616;12.872;2022-11-20T06:10:57;3.20;99.90
7684;DHT22;3884;48.616;12.872;2022-11-20T06:13:24;3.30;99.90
7684;DHT22;3884;48.616;12.872;2022-11-20T06:15:53;3.30;99.90
7684;DHT22;3884;48.616;12.872;2022-11-20T06:18:20;3.30;99.90
7684;DHT22;3884;48.616;12.872;2022-11-20T06:20:48;3.30;99.90
7684;DHT22;3884;48.616;12.872;2022-11-20T06:23:15;3.30;99.90
7684;DHT22;3884;48.616;12.872;2022-11-20T06:25:43;3.30;99.90
7684;DHT22;3884;48.616;12.872;2022-11-20T06:28:10;3.20;99.90
7684;DHT22;3884;48.616;12.872;2022-11-20T06:30:37;3.20;99.90
7684;DHT22;3884;48.616;12.872;2022-11-20T06:33:04;3.20;99.90
7684;DHT22;3884;48.616;12.872;2022-11-20T06:35:30;3.20;99.90
7684;DHT22;3884;48.616;12.872;2022-11-20T06:37:59;3.30;99.90
7684;DHT22;3884;48.616;12.872;2022-11-20T06:40:26;3.30;99.90
7684;DHT22;3884;48.616;12.872;2022-11-20T06:42:54;3.30;99.90
7684;DHT22;3884;48.616;12.872;2022-11-20T06:45:21;3.30;99.90
7684;DHT22;3884;48.616;12.872;2022-11-20T06:47:48;3.40;99.90
7684;DHT22;3884;48.616;12.872;2022-11-20T06:50:16;3.40;99.90
7684;DHT22;3884;48.616;12.872;2022-11-20T06:52:43;3.40;99.90
7684;DHT22;3884;48.616;12.872;2022-11-20T06:55:11;3.40;99.90
7684;DHT22;3884;48.616;12.872;2022-11-20T06:57:38;3.50;99.90
7684;DHT22;3884;48.616;12.872;2022-11-20T07:00:06;3.50;99.90
7684;DHT22;3884;48.616;12.872;2022-11-20T07:02:33;3.50;99.90
7684;DHT22;3884;48.616;12.872;2022-11-20T07:05:00;3.60;99.90
7684;DHT22;3884;48.616;12.872;2022-11-20T07:07:27;3.60;99.90
7684;DHT22;3884;48.616;12.872;2022-11-20T07:09:54;3.60;99.90
7684;DHT22;3884;48.616;12.872;2022-11-20T07:12:23;3.50;99.90
7684;DHT22;3884;48.616;12.872;2022-11-20T07:14:50;3.50;99.90
7684;DHT22;3884;48.616;12.872;2022-11-20T07:17:17;3.60;99.90
7684;DHT22;3884;48.616;12.872;2022-11-20T07:19:44;3.40;99.90
7684;DHT22;3884;48.616;12.872;2022-11-20T07:22:11;3.50;99.90
7684;DHT22;3884;48.616;12.872;2022-11-20T07:24:38;3.50;99.90
7684;DHT22;3884;48.616;12.872;2022-11-20T07:27:05;3.50;99.90
7684;DHT22;3884;48.616;12.872;2022-11-20T07:29:33;3.60;99.90
7684;DHT22;3884;48.616;12.872;2022-11-20T07:32:01;3.60;99.90
7684;DHT22;3884;48.616;12.872;2022-11-20T07:34:28;3.70;99.90
7684;DHT22;3884;48.616;12.872;2022-11-20T07:36:55;3.80;99.90
7684;DHT22;3884;48.616;12.872;2022-11-20T07:39:22;3.80;99.90
7684;DHT22;3884;48.616;12.872;2022-11-20T07:41:49;4.00;99.90
7684;DHT22;3884;48.616;12.872;2022-11-20T07:44:16;4.10;99.90
7684;DHT22;3884;48.616;12.872;2022-11-20T07:46:44;4.10;99.90
7684;DHT22;3884;48.616;12.872;2022-11-20T07:49:11;4.20;99.90
7684;DHT22;3884;48.616;12.872;2022-11-20T07:51:38;4.20;99.90
7684;DHT22;3884;48.616;12.872;2022-11-20T07:54:05;4.20;99.90
7684;DHT22;3884;48.616;12.872;2022-11-20T07:56:32;4.20;99.90
7684;DHT22;3884;48.616;12.872;2022-11-20T07:59:00;4.30;99.90
7684;DHT22;3884;48.616;12.872;2022-11-20T08:01:26;4.40;99.90
7684;DHT22;3884;48.616;12.872;2022-11-20T08:03:55;4.60;99.90
7684;DHT22;3884;48.616;12.872;2022-11-20T08:06:22;4.80;99.90
7684;DHT22;3884;48.616;12.872;2022-11-20T08:08:50;4.70;99.90
7684;DHT22;3884;48.616;12.872;2022-11-20T08:11:17;4.80;99.90
7684;DHT22;3884;48.616;12.872;2022-11-20T08:14:16;4.90;99.90
7684;DHT22;3884;48.616;12.872;2022-11-20T08:16:45;4.90;99.90
7684;DHT22;3884;48.616;12.872;2022-11-20T08:19:15;5.00;99.90
7684;DHT22;3884;48.616;12.872;2022-11-20T08:21:42;5.00;99.90
7684;DHT22;3884;48.616;12.872;2022-11-20T08:24:10;5.10;99.90
7684;DHT22;3884;48.616;12.872;2022-11-20T08:26:38;5.10;99.90
7684;DHT22;3884;48.616;12.872;2022-11-20T08:29:05;5.20;99.90
7684;DHT22;3884;48.616;12.872;2022-11-20T08:31:32;5.10;99.90
7684;DHT22;3884;48.616;12.872;2022-11-20T08:33:59;5.30;99.90
7684;DHT22;3884;48.616;12.872;2022-11-20T08:36:28;5.30;99.90
7684;DHT22;3884;48.616;12.872;2022-11-20T08:38:55;5.40;99.90
7684;DHT22;3884;48.616;12.872;2022-11-20T08:41:22;5.40;99.90
7684;DHT22;3884;48.616;12.872;2022-11-20T08:43:54;5.40;99.90
7684;DHT22;3884;48.616;12.872;2022-11-20T08:46:21;5.50;99.90
7684;DHT22;3884;48.616;12.872;2022-11-20T08:48:48;5.50;99.90
7684;DHT22;3884;48.616;12.872;2022-11-20T08:51:16;5.50;99.90
7684;DHT22;3884;48.616;12.872;2022-11-20T08:53:44;5.60;99.90
7684;DHT22;3884;48.616;12.872;2022-11-20T08:56:11;5.70;99.90
7684;DHT22;3884;48.616;12.872;2022-11-20T08:58:38;5.70;99.90
7684;DHT22;3884;48.616;12.872;2022-11-20T09:01:05;5.70;99.90
7684;DHT22;3884;48.616;12.872;2022-11-20T09:03:32;5.80;99.90
7684;DHT22;3884;48.616;12.872;2022-11-20T09:06:00;5.80;99.90
7684;DHT22;3884;48.616;12.872;2022-11-20T09:08:28;5.80;99.90
7684;DHT22;3884;48.616;12.872;2022-11-20T09:10:58;5.80;99.90
7684;DHT22;3884;48.616;12.872;2022-11-20T09:13:26;5.80;99.90
7684;DHT22;3884;48.616;12.872;2022-11-20T09:15:54;5.90;99.90
7684;DHT22;3884;48.616;12.872;2022-11-20T09:18:22;5.90;99.90
7684;DHT22;3884;48.616;12.872;2022-11-20T09:20:49;5.90;99.90
7684;DHT22;3884;48.616;12.872;2022-11-20T09:23:16;6.00;99.90
7684;DHT22;3884;48.616;12.872;2022-11-20T09:25:43;6.00;99.90
7684;DHT22;3884;48.616;12.872;2022-11-20T09:28:12;6.10;99.90
7684;DHT22;3884;48.616;12.872;2022-11-20T09:30:39;6.10;99.90
7684;DHT22;3884;48.616;12.872;2022-11-20T09:33:07;6.20;99.90
7684;DHT22;3884;48.616;12.872;2022-11-20T09:35:38;6.30;99.90
7684;DHT22;3884;48.616;12.872;2022-11-20T09:38:05;6.20;99.90
7684;DHT22;3884;48.616;12.872;2022-11-20T09:40:44;6.20;99.90
7684;DHT22;3884;48.616;12.872;2022-11-20T09:43:17;6.10;99.90
7684;DHT22;3884;48.616;12.872;2022-11-20T09:45:56;6.20;99.90
7684;DHT22;3884;48.616;12.872;2022-11-20T09:48:45;6.20;99.90
7684;DHT22;3884;48.616;12.872;2022-11-20T09:51:22;6.20;99.90
7684;DHT22;3884;48.616;12.872;2022-11-20T09:54:04;6.10;99.90
7684;DHT22;3884;48.616;12.872;2022-11-20T09:56:34;6.10;99.90
7684;DHT22;3884;48.616;12.872;2022-11-20T09:59:06;6.10;99.90
7684;DHT22;3884;48.616;12.872;2022-11-20T10:01:36;6.10;99.90
7684;DHT22;3884;48.616;12.872;2022-11-20T10:04:10;6.10;99.90
7684;DHT22;3884;48.616;12.872;2022-11-20T10:06:47;6.10;99.90
7684;DHT22;3884;48.616;12.872;2022-11-20T10:09:21;6.10;99.90
7684;DHT22;3884;48.616;12.872;2022-11-20T10:11:59;6.10;99.90
7684;DHT22;3884;48.616;12.872;2022-11-20T10:14:38;6.10;99.90
7684;DHT22;3884;48.616;12.872;2022-11-20T10:17:17;6.10;99.90
7684;DHT22;3884;48.616;12.872;2022-11-20T10:20:00;6.10;99.90
7684;DHT22;3884;48.616;12.872;2022-11-20T10:22:40;6.10;99.90
7684;DHT22;3884;48.616;12.872;2022-11-20T10:25:15;6.10;99.90
7684;DHT22;3884;48.616;12.872;2022-11-20T10:28:04;6.10;99.90
7684;DHT22;3884;48.616;12.872;2022-11-20T10:30:41;6.20;99.90
7684;DHT22;3884;48.616;12.872;2022-11-20T10:33:13;6.20;99.90
7684;DHT22;3884;48.616;12.872;2022-11-20T10:35:44;6.20;99.90
7684;DHT22;3884;48.616;12.872;2022-11-20T10:38:20;6.20;99.90
7684;DHT22;3884;48.616;12.872;2022-11-20T10:40:51;6.20;99.90
7684;DHT22;3884;48.616;12.872;2022-11-20T10:43:23;6.20;99.90
7684;DHT22;3884;48.616;12.872;2022-11-20T10:46:00;6.20;99.90
7684;DHT22;3884;48.616;12.872;2022-11-20T10:48:29;6.30;99.90
7684;DHT22;3884;48.616;12.872;2022-11-20T10:51:12;6.30;99.90
7684;DHT22;3884;48.616;12.872;2022-11-20T10:54:03;6.40;99.90
7684;DHT22;3884;48.616;12.872;2022-11-20T10:56:38;6.50;99.90
7684;DHT22;3884;48.616;12.872;2022-11-20T10:59:35;6.50;99.90
7684;DHT22;3884;48.616;12.872;2022-11-20T11:02:18;6.50;99.90
7684;DHT22;3884;48.616;12.872;2022-11-20T11:04:47;6.50;99.90
7684;DHT22;3884;48.616;12.872;2022-11-20T11:07:18;6.60;99.90
7684;DHT22;3884;48.616;12.872;2022-11-20T11:09:48;6.60;99.90
7684;DHT22;3884;48.616;12.872;2022-11-20T11:12:15;6.70;99.90
7684;DHT22;3884;48.616;12.872;2022-11-20T11:14:45;6.70;99.90
7684;DHT22;3884;48.616;12.872;2022-11-20T11:17:24;6.70;99.90
7684;DHT22;3884;48.616;12.872;2022-11-20T11:20:00;6.70;99.90
7684;DHT22;3884;48.616;12.872;2022-11-20T11:22:29;6.80;99.90
7684;DHT22;3884;48.616;12.872;2022-11-20T11:24:56;6.80;99.90
7684;DHT22;3884;48.616;12.872;2022-11-20T11:27:23;6.80;99.90
7684;DHT22;3884;48.616;12.872;2022-11-20T11:30:02;6.90;99.90
7684;DHT22;3884;48.616;12.872;2022-11-20T11:32:30;6.90;99.90
7684;DHT22;3884;48.616;12.872;2022-11-20T11:35:02;6.90;99.90
7684;DHT22;3884;48.616;12.872;2022-11-20T11:37:33;7.00;99.90
7684;DHT22;3884;48.616;12.872;2022-11-20T11:40:01;7.00;99.90
7684;DHT22;3884;48.616;12.872;2022-11-20T11:42:28;7.00;99.90
7684;DHT22;3884;48.616;12.872;2022-11-20T11:44:58;7.00;99.90
7684;DHT22;3884;48.616;12.872;2022-11-20T11:47:35;7.00;99.90
7684;DHT22;3884;48.616;12.872;2022-11-20T11:50:19;7.00;99.90
7684;DHT22;3884;48.616;12.872;2022-11-20T11:53:02;7.00;99.90
7684;DHT22;3884;48.616;12.872;2022-11-20T11:55:36;7.00;99.90
7684;DHT22;3884;48.616;12.872;2022-11-20T11:58:14;7.00;99.90
7684;DHT22;3884;48.616;12.872;2022-11-20T12:00:51;7.00;99.90
7684;DHT22;3884;48.616;12.872;2022-11-20T12:03:24;7.00;99.90
7684;DHT22;3884;48.616;12.872;2022-11-20T12:05:56;7.00;99.90
7684;DHT22;3884;48.616;12.872;2022-11-20T12:08:28;7.10;99.90
7684;DHT22;3884;48.616;12.872;2022-11-20T12:10:59;7.10;99.90
7684;DHT22;3884;48.616;12.872;2022-11-20T12:13:37;7.10;99.90
7684;DHT22;3884;48.616;12.872;2022-11-20T12:16:11;7.10;99.90
7684;DHT22;3884;48.616;12.872;2022-11-20T12:18:40;7.20;99.90
7684;DHT22;3884;48.616;12.872;2022-11-20T12:21:18;7.30;99.90
7684;DHT22;3884;48.616;12.872;2022-11-20T12:24:08;7.20;99.90
7684;DHT22;3884;48.616;12.872;2022-11-20T12:26:47;7.30;99.90
7684;DHT22;3884;48.616;12.872;2022-11-20T12:29:27;7.30;99.90
7684;DHT22;3884;48.616;12.872;2022-11-20T12:32:06;7.30;99.90
7684;DHT22;3884;48.616;12.872;2022-11-20T12:34:53;7.30;99.90
7684;DHT22;3884;48.616;12.872;2022-11-20T12:37:33;7.10;99.90
7684;DHT22;3884;48.616;12.872;2022-11-20T12:40:16;7.00;99.90
7684;DHT22;3884;48.616;12.872;2022-11-20T12:43:01;7.00;99.90
7684;DHT22;3884;48.616;12.872;2022-11-20T12:45:58;7.00;99.90
7684;DHT22;3884;48.616;12.872;2022-11-20T12:48:42;7.00;99.90
7684;DHT22;3884;48.616;12.872;2022-11-20T12:54:46;7.00;99.90
7684;DHT22;3884;48.616;12.872;2022-11-20T12:57:20;6.90;99.90
7684;DHT22;3884;48.616;12.872;2022-11-20T13:00:08;6.90;99.90
7684;DHT22;3884;48.616;12.872;2022-11-20T13:02:45;6.90;99.90
7684;DHT22;3884;48.616;12.872;2022-11-20T13:05:20;6.90;99.90
7684;DHT22;3884;48.616;12.872;2022-11-20T13:07:51;6.90;99.90
7684;DHT22;3884;48.616;12.872;2022-11-20T13:10:26;6.90;99.90
7684;DHT22;3884;48.616;12.872;2022-11-20T13:12:59;7.00;99.90
7684;DHT22;3884;48.616;12.872;2022-11-20T13:15:36;6.90;99.90
7684;DHT22;3884;48.616;12.872;2022-11-20T13:18:09;7.00;99.90
7684;DHT22;3884;48.616;12.872;2022-11-20T13:20:41;6.90;99.90
7684;DHT22;3884;48.616;12.872;2022-11-20T13:23:09;6.90;99.90
7684;DHT22;3884;48.616;12.872;2022-11-20T13:25:38;6.90;99.90
7684;DHT22;3884;48.616;12.872;2022-11-20T13:28:29;6.80;99.90
7684;DHT22;3884;48.616;12.872;2022-11-20T13:30:58;6.80;99.90
7684;DHT22;3884;48.616;12.872;2022-11-20T13:33:29;6.80;99.90
7684;DHT22;3884;48.616;12.872;2022-11-20T13:35:58;6.80;99.90
7684;DHT22;3884;48.616;12.872;2022-11-20T13:38:25;6.80;99.90
7684;DHT22;3884;48.616;12.872;2022-11-20T13:40:55;6.80;99.90
7684;DHT22;3884;48.616;12.872;2022-11-20T13:43:28;6.70;99.90
7684;DHT22;3884;48.616;12.872;2022-11-20T13:45:59;6.60;99.90
7684;DHT22;3884;48.616;12.872;2022-11-20T13:48:30;6.60;99.90
7684;DHT22;3884;48.616;12.872;2022-11-20T13:51:14;6.70;99.90
7684;DHT22;3884;48.616;12.872;2022-11-20T13:54:13;6.60;99.90
7684;DHT22;3884;48.616;12.872;2022-11-20T13:56:54;6.50;99.90
7684;DHT22;3884;48.616;12.872;2022-11-20T13:59:36;6.60;99.90
7684;DHT22;3884;48.616;12.872;2022-11-20T14:02:11;6.50;99.90
7684;DHT22;3884;48.616;12.872;2022-11-20T14:04:42;6.50;99.90
7684;DHT22;3884;48.616;12.872;2022-11-20T14:07:10;6.50;99.90
7684;DHT22;3884;48.616;12.872;2022-11-20T14:09:37;6.40;99.90
7684;DHT22;3884;48.616;12.872;2022-11-20T14:12:16;6.50;99.90
7684;DHT22;3884;48.616;12.872;2022-11-20T14:14:48;6.40;99.90
7684;DHT22;3884;48.616;12.872;2022-11-20T14:17:18;6.50;99.90
7684;DHT22;3884;48.616;12.872;2022-11-20T14:19:47;6.50;99.90
7684;DHT22;3884;48.616;12.872;2022-11-20T14:22:19;6.40;99.90
7684;DHT22;3884;48.616;12.872;2022-11-20T14:24:47;6.50;99.90
7684;DHT22;3884;48.616;12.872;2022-11-20T14:27:17;6.40;99.90
7684;DHT22;3884;48.616;12.872;2022-11-20T14:29:46;6.40;99.90
7684;DHT22;3884;48.616;12.872;2022-11-20T14:32:15;6.60;99.90
7684;DHT22;3884;48.616;12.872;2022-11-20T14:34:45;6.50;99.90
7684;DHT22;3884;48.616;12.872;2022-11-20T14:37:19;6.60;99.90
7684;DHT22;3884;48.616;12.872;2022-11-20T14:39:50;6.50;99.90
7684;DHT22;3884;48.616;12.872;2022-11-20T14:42:21;6.40;99.90
7684;DHT22;3884;48.616;12.872;2022-11-20T14:44:48;6.40;99.90
7684;DHT22;3884;48.616;12.872;2022-11-20T14:47:20;6.50;99.90
7684;DHT22;3884;48.616;12.872;2022-11-20T14:49:48;6.50;99.90
7684;DHT22;3884;48.616;12.872;2022-11-20T14:52:18;6.40;99.90
7684;DHT22;3884;48.616;12.872;2022-11-20T14:54:46;6.50;99.90
7684;DHT22;3884;48.616;12.872;2022-11-20T14:57:24;6.50;99.90
7684;DHT22;3884;48.616;12.872;2022-11-20T15:00:03;6.50;99.90
7684;DHT22;3884;48.616;12.872;2022-11-20T15:02:30;6.50;99.90
7684;DHT22;3884;48.616;12.872;2022-11-20T15:04:58;6.50;99.90
7684;DHT22;3884;48.616;12.872;2022-11-20T15:07:28;6.50;99.90
7684;DHT22;3884;48.616;12.872;2022-11-20T15:10:06;6.50;99.90
7684;DHT22;3884;48.616;12.872;2022-11-20T15:12:38;6.40;99.90
7684;DHT22;3884;48.616;12.872;2022-11-20T15:15:08;6.40;99.90
7684;DHT22;3884;48.616;12.872;2022-11-20T15:17:40;6.40;99.90
7684;DHT22;3884;48.616;12.872;2022-11-20T15:20:13;6.40;99.90
7684;DHT22;3884;48.616;12.872;2022-11-20T15:22:40;6.40;99.90
7684;DHT22;3884;48.616;12.872;2022-11-20T15:25:15;6.30;99.90
7684;DHT22;3884;48.616;12.872;2022-11-20T15:27:44;6.30;99.90
7684;DHT22;3884;48.616;12.872;2022-11-20T15:30:13;6.30;99.90
7684;DHT22;3884;48.616;12.872;2022-11-20T15:32:41;6.30;99.90
7684;DHT22;3884;48.616;12.872;2022-11-20T15:35:09;6.30;99.90
7684;DHT22;3884;48.616;12.872;2022-11-20T15:37:36;6.40;99.90
7684;DHT22;3884;48.616;12.872;2022-11-20T15:40:04;6.30;99.90
7684;DHT22;3884;48.616;12.872;2022-11-20T15:42:31;6.40;99.90
7684;DHT22;3884;48.616;12.872;2022-11-20T15:45:00;6.40;99.90
7684;DHT22;3884;48.616;12.872;2022-11-20T15:47:29;6.30;99.90
7684;DHT22;3884;48.616;12.872;2022-11-20T15:49:56;6.40;99.90
7684;DHT22;3884;48.616;12.872;2022-11-20T15:52:23;6.30;99.90
7684;DHT22;3884;48.616;12.872;2022-11-20T15:54:50;6.30;99.90
7684;DHT22;3884;48.616;12.872;2022-11-20T15:57:17;6.30;99.90
7684;DHT22;3884;48.616;12.872;2022-11-20T15:59:43;6.20;99.90
7684;DHT22;3884;48.616;12.872;2022-11-20T16:02:14;6.30;99.90
7684;DHT22;3884;48.616;12.872;2022-11-20T16:04:41;6.30;99.90
7684;DHT22;3884;48.616;12.872;2022-11-20T16:07:08;6.30;99.90
7684;DHT22;3884;48.616;12.872;2022-11-20T16:09:35;6.40;99.90
7684;DHT22;3884;48.616;12.872;2022-11-20T16:12:02;6.30;99.90
7684;DHT22;3884;48.616;12.872;2022-11-20T16:14:29;6.30;99.90
7684;DHT22;3884;48.616;12.872;2022-11-20T16:17:15;6.50;99.90
7684;DHT22;3884;48.616;12.872;2022-11-20T16:20:02;6.40;99.90
7684;DHT22;3884;48.616;12.872;2022-11-20T16:22:29;6.40;99.90
7684;DHT22;3884;48.616;12.872;2022-11-20T16:24:56;6.30;99.90
7684;DHT22;3884;48.616;12.872;2022-11-20T16:27:23;6.30;99.90
7684;DHT22;3884;48.616;12.872;2022-11-20T16:29:50;6.40;99.90